createdAt,value
2022-08-26T00:02:11.319Z,98379.78
2022-08-26T00:04:38.976Z,98380.97
2022-08-26T00:07:06.653Z,98379.88
2022-08-26T00:09:39.079Z,98385.06
2022-08-26T00:12:09.315Z,98375.69
2022-08-26T00:14:39.963Z,98379.53
2022-08-26T00:17:08.278Z,98377.69
2022-08-26T00:19:36.199Z,98378.88
2022-08-26T00:22:03.764Z,98374.91
2022-08-26T00:24:31.208Z,98365.19
2022-08-26T00:26:58.898Z,98374.56
2022-08-26T00:29:26.473Z,98366.50
2022-08-26T00:31:54.071Z,98368.59
2022-08-26T00:34:21.751Z,98371.38
2022-08-26T00:36:51.870Z,98370.59
2022-08-26T00:39:20.431Z,98368.84
2022-08-26T00:41:49.152Z,98372.03
2022-08-26T00:44:17.624Z,98382.09
2022-08-26T00:46:55.458Z,98380.44
2022-08-26T00:49:33.400Z,98376.25
2022-08-26T00:52:03.457Z,98372.16
2022-08-26T00:54:36.324Z,98370.72
2022-08-26T00:57:16.454Z,98374.84
2022-08-26T00:59:47.777Z,98364.53
2022-08-26T01:02:21.349Z,98369.06
2022-08-26T01:05:03.421Z,98372.50
2022-08-26T01:07:33.133Z,98370.94
2022-08-26T01:10:05.467Z,98368.53
2022-08-26T01:12:41.490Z,98362.44
2022-08-26T01:15:15.699Z,98362.91
2022-08-26T01:17:43.843Z,98349.53
2022-08-26T01:20:40.448Z,98367.72
2022-08-26T01:23:11.365Z,98371.50
2022-08-26T01:25:43.234Z,98367.31
2022-08-26T01:28:17.033Z,98365.31
2022-08-26T01:30:47.549Z,98370.19
2022-08-26T01:33:19.498Z,98360.00
2022-08-26T01:35:48.307Z,98362.56
2022-08-26T01:38:17.098Z,98367.97
2022-08-26T01:40:46.196Z,98365.41
2022-08-26T01:43:20.658Z,98367.84
2022-08-26T01:45:50.937Z,98362.22
2022-08-26T01:48:24.361Z,98370.81
2022-08-26T01:50:52.540Z,98370.25
2022-08-26T01:53:23.341Z,98368.44
2022-08-26T01:55:55.190Z,98365.91
2022-08-26T01:58:32.415Z,98370.53
2022-08-26T02:01:00.284Z,98368.22
2022-08-26T02:03:31.012Z,98358.72
2022-08-26T02:06:06.323Z,98370.38
2022-08-26T02:08:47.143Z,98367.31
2022-08-26T02:11:14.626Z,98363.41
2022-08-26T02:13:51.326Z,98369.97
2022-08-26T02:16:22.509Z,98370.34
2022-08-26T02:18:53.556Z,98373.59
2022-08-26T02:21:21.431Z,98365.50
2022-08-26T02:23:52.797Z,98366.78
2022-08-26T02:26:26.847Z,98374.59
2022-08-26T02:29:05.642Z,98369.31
2022-08-26T02:31:35.193Z,98358.66
2022-08-26T02:34:13.989Z,98374.19
2022-08-26T02:36:43.272Z,98367.44
2022-08-26T02:39:11.243Z,98363.66
2022-08-26T02:41:44.805Z,98369.63
2022-08-26T02:44:13.468Z,98365.94
2022-08-26T02:46:41.429Z,98367.69
2022-08-26T02:49:15.180Z,98364.19
2022-08-26T02:51:43.115Z,98370.13
2022-08-26T02:54:10.731Z,98372.78
2022-08-26T02:56:38.481Z,98373.56
2022-08-26T02:59:06.823Z,98364.09
2022-08-26T03:01:36.225Z,98374.03
2022-08-26T03:04:06.937Z,98375.06
2022-08-26T03:06:34.504Z,98375.53
2022-08-26T03:09:06.070Z,98382.38
2022-08-26T03:11:34.261Z,98377.41
2022-08-26T03:14:03.625Z,98381.00
2022-08-26T03:16:36.988Z,98376.72
2022-08-26T03:19:08.508Z,98376.13
2022-08-26T03:21:37.901Z,98373.00
2022-08-26T03:24:06.354Z,98370.31
2022-08-26T03:26:33.766Z,98371.13
2022-08-26T03:29:20.005Z,98359.88
2022-08-26T03:31:47.625Z,98373.34
2022-08-26T03:34:15.739Z,98371.47
2022-08-26T03:36:43.943Z,98370.38
2022-08-26T03:39:13.278Z,98375.03
2022-08-26T03:41:41.269Z,98378.56
2022-08-26T03:44:09.380Z,98377.25
2022-08-26T03:46:38.098Z,98386.56
2022-08-26T03:49:06.430Z,98378.88
2022-08-26T03:51:34.956Z,98377.34
2022-08-26T03:54:08.459Z,98379.69
2022-08-26T03:56:37.076Z,98383.03
2022-08-26T03:59:07.572Z,98393.34
2022-08-26T04:01:35.929Z,98387.38
2022-08-26T04:04:04.937Z,98387.19
2022-08-26T04:06:39.770Z,98390.88
2022-08-26T04:09:11.965Z,98391.63
2022-08-26T04:11:39.882Z,98384.56
2022-08-26T04:14:10.984Z,98393.50
2022-08-26T04:16:39.223Z,98381.47
2022-08-26T04:19:06.948Z,98378.25
2022-08-26T04:21:35.667Z,98375.38
2022-08-26T04:24:03.497Z,98383.09
2022-08-26T04:26:39.583Z,98391.56
2022-08-26T04:29:18.332Z,98384.69
2022-08-26T04:31:48.413Z,98379.25
2022-08-26T04:34:17.032Z,98379.50
2022-08-26T04:36:45.139Z,98382.34
2022-08-26T04:39:14.416Z,98381.78
2022-08-26T04:41:41.957Z,98376.47
2022-08-26T04:44:09.784Z,98383.88
2022-08-26T04:46:39.964Z,98382.13
2022-08-26T04:49:11.964Z,98377.22
2022-08-26T04:51:40.128Z,98378.97
2022-08-26T04:54:08.115Z,98374.16
2022-08-26T04:56:39.373Z,98386.19
2022-08-26T04:59:16.691Z,98377.28
2022-08-26T05:01:49.021Z,98376.16
2022-08-26T05:04:18.910Z,98374.78
2022-08-26T05:06:48.620Z,98373.75
2022-08-26T05:09:21.322Z,98370.03
2022-08-26T05:11:52.335Z,98372.28
2022-08-26T05:14:23.500Z,98381.94
2022-08-26T05:16:51.485Z,98374.84
2022-08-26T05:19:19.575Z,98375.72
2022-08-26T05:21:48.908Z,98380.66
2022-08-26T05:24:18.117Z,98380.00
2022-08-26T05:26:45.749Z,98373.69
2022-08-26T05:29:14.363Z,98383.44
2022-08-26T05:31:42.130Z,98373.00
2022-08-26T05:34:09.524Z,98372.25
2022-08-26T05:36:39.120Z,98373.88
2022-08-26T05:39:07.920Z,98376.94
2022-08-26T05:41:41.273Z,98376.94
2022-08-26T05:44:12.278Z,98385.34
2022-08-26T05:46:41.144Z,98371.81
2022-08-26T05:49:12.827Z,98362.59
2022-08-26T05:51:41.710Z,98372.91
2022-08-26T05:54:10.330Z,98368.72
2022-08-26T05:56:39.027Z,98373.75
2022-08-26T05:59:14.089Z,98365.03
2022-08-26T06:01:43.107Z,98364.03
2022-08-26T06:04:11.970Z,98361.94
2022-08-26T06:06:42.906Z,98357.81
2022-08-26T06:09:12.652Z,98347.06
2022-08-26T06:11:40.482Z,98343.44
2022-08-26T06:14:08.791Z,98339.31
2022-08-26T06:16:40.755Z,98348.78
2022-08-26T06:19:11.769Z,98354.00
2022-08-26T06:21:42.615Z,98336.50
2022-08-26T06:24:30.886Z,98342.47
2022-08-26T06:27:04.542Z,98339.81
2022-08-26T06:29:34.441Z,98334.06
2022-08-26T06:32:04.156Z,98331.56
2022-08-26T06:34:31.600Z,98323.63
2022-08-26T06:37:02.845Z,98333.25
2022-08-26T06:39:31.904Z,98329.16
2022-08-26T06:42:00.950Z,98324.13
2022-08-26T06:44:34.682Z,98326.19
2022-08-26T06:47:02.341Z,98316.81
2022-08-26T06:49:29.804Z,98314.88
2022-08-26T06:51:59.977Z,98310.72
2022-08-26T06:54:30.551Z,98320.13
2022-08-26T06:56:58.711Z,98311.91
2022-08-26T06:59:26.437Z,98302.94
2022-08-26T07:01:55.042Z,98303.47
2022-08-26T07:04:23.439Z,98302.19
2022-08-26T07:06:53.550Z,98307.16
2022-08-26T07:09:23.811Z,98304.25
2022-08-26T07:11:52.878Z,98300.72
2022-08-26T07:14:21.446Z,98291.81
2022-08-26T07:16:50.793Z,98296.28
2022-08-26T07:19:29.093Z,98287.66
2022-08-26T07:22:06.235Z,98296.56
2022-08-26T07:24:38.509Z,98290.38
2022-08-26T07:27:08.772Z,98289.41
2022-08-26T07:29:39.742Z,98291.69
2022-08-26T07:32:08.899Z,98291.91
2022-08-26T07:34:41.859Z,98282.66
2022-08-26T07:37:09.738Z,98272.28
2022-08-26T07:39:37.973Z,98288.94
2022-08-26T07:42:09.383Z,98289.06
2022-08-26T07:44:38.016Z,98278.56
2022-08-26T07:47:10.517Z,98281.56
2022-08-26T07:49:54.894Z,98274.75
2022-08-26T07:52:26.311Z,98268.78
2022-08-26T07:54:55.742Z,98268.19
2022-08-26T07:57:24.223Z,98255.84
2022-08-26T07:59:54.073Z,98261.94
2022-08-26T08:02:24.731Z,98269.97
2022-08-26T08:04:53.281Z,98265.97
2022-08-26T08:07:38.620Z,98251.16
2022-08-26T08:10:10.091Z,98257.34
2022-08-26T08:12:40.526Z,98251.63
2022-08-26T08:15:10.181Z,98248.63
2022-08-26T08:17:37.759Z,98248.91
2022-08-26T08:20:06.919Z,98247.53
2022-08-26T08:22:35.645Z,98244.31
2022-08-26T08:25:08.190Z,98241.44
2022-08-26T08:27:40.137Z,98238.00
2022-08-26T08:30:09.215Z,98240.47
2022-08-26T08:32:43.835Z,98241.03
2022-08-26T08:35:13.926Z,98235.38
2022-08-26T08:37:42.064Z,98219.56
2022-08-26T08:40:18.588Z,98233.63
2022-08-26T08:42:55.260Z,98239.28
2022-08-26T08:45:39.402Z,98228.03
2022-08-26T08:48:07.019Z,98220.97
2022-08-26T08:50:41.939Z,98232.19
2022-08-26T08:53:13.362Z,98218.50
2022-08-26T08:56:12.629Z,98226.00
2022-08-26T08:59:02.888Z,98220.97
2022-08-26T09:01:52.489Z,98207.84
2022-08-26T09:04:30.539Z,98216.50
2022-08-26T09:07:00.773Z,98212.50
2022-08-26T09:09:41.068Z,98211.59
2022-08-26T09:12:15.773Z,98214.34
2022-08-26T09:14:46.095Z,98203.59
2022-08-26T09:17:30.723Z,98208.53
2022-08-26T09:20:18.677Z,98193.28
2022-08-26T09:22:47.093Z,98191.31
2022-08-26T09:25:15.537Z,98197.13
2022-08-26T09:27:51.641Z,98197.88
2022-08-26T09:30:33.334Z,98192.19
2022-08-26T09:33:06.599Z,98195.97
2022-08-26T09:35:45.786Z,98187.28
2022-08-26T09:38:23.642Z,98179.75
2022-08-26T09:41:20.450Z,98185.53
2022-08-26T09:44:14.566Z,98177.78
2022-08-26T09:46:52.526Z,98183.13
2022-08-26T09:49:27.138Z,98174.50
2022-08-26T09:52:17.996Z,98183.56
2022-08-26T09:55:11.756Z,98179.53
2022-08-26T09:57:55.243Z,98186.28
2022-08-26T10:00:39.054Z,98185.63
2022-08-26T10:03:12.059Z,98174.75
2022-08-26T10:06:00.413Z,98175.34
2022-08-26T10:08:39.760Z,98168.88
2022-08-26T10:11:40.793Z,98162.16
2022-08-26T10:14:18.387Z,98159.19
2022-08-26T10:16:56.324Z,98144.44
2022-08-26T10:19:41.714Z,98147.06
2022-08-26T10:22:26.074Z,98149.66
2022-08-26T10:25:00.701Z,98136.44
2022-08-26T10:28:00.146Z,98140.25
2022-08-26T10:30:49.168Z,98128.31
2022-08-26T10:33:17.900Z,98128.50
2022-08-26T10:35:53.924Z,98128.81
2022-08-26T10:38:29.773Z,98123.72
2022-08-26T10:41:10.722Z,98126.28
2022-08-26T10:43:45.519Z,98122.88
2022-08-26T10:46:16.618Z,98133.16
2022-08-26T10:48:47.010Z,98118.97
2022-08-26T10:51:18.262Z,98123.25
2022-08-26T10:53:56.837Z,98138.25
2022-08-26T10:56:44.195Z,98135.75
2022-08-26T10:59:43.850Z,98134.69
2022-08-26T11:02:22.791Z,98136.66
2022-08-26T11:05:04.702Z,98129.00
2022-08-26T11:07:33.276Z,98121.75
2022-08-26T11:10:09.681Z,98112.13
2022-08-26T11:12:37.337Z,98106.09
2022-08-26T11:15:29.793Z,98113.13
2022-08-26T11:18:00.868Z,98109.19
2022-08-26T11:20:47.673Z,98114.31
2022-08-26T11:23:22.547Z,98106.63
2022-08-26T11:26:02.191Z,98108.00
2022-08-26T11:28:45.861Z,98103.34
2022-08-26T11:31:26.923Z,98108.81
2022-08-26T11:33:59.540Z,98095.41
2022-08-26T11:36:41.871Z,98105.50
2022-08-26T11:39:18.451Z,98102.31
2022-08-26T11:41:52.751Z,98107.91
2022-08-26T11:44:26.696Z,98100.81
2022-08-26T11:47:03.832Z,98111.00
2022-08-26T11:49:33.825Z,98103.63
2022-08-26T11:52:20.847Z,98115.91
2022-08-26T11:55:11.920Z,98111.41
2022-08-26T11:57:48.717Z,98117.16
2022-08-26T12:00:33.407Z,98109.09
2022-08-26T12:03:05.416Z,98115.84
2022-08-26T12:05:42.782Z,98125.44
2022-08-26T12:08:14.425Z,98121.91
2022-08-26T12:10:41.926Z,98119.41
2022-08-26T12:13:22.201Z,98119.28
2022-08-26T12:15:58.735Z,98123.59
2022-08-26T12:18:31.045Z,98115.13
2022-08-26T12:21:16.451Z,98124.44
2022-08-26T12:23:47.943Z,98117.34
2022-08-26T12:26:37.388Z,98125.34
2022-08-26T12:29:12.605Z,98114.06
2022-08-26T12:31:48.607Z,98118.13
2022-08-26T12:34:18.530Z,98116.16
2022-08-26T12:36:50.236Z,98100.06
2022-08-26T12:39:33.348Z,98101.22
2022-08-26T12:42:01.557Z,98111.13
2022-08-26T12:44:53.443Z,98115.25
2022-08-26T12:47:42.423Z,98102.88
2022-08-26T12:50:37.018Z,98104.25
2022-08-26T12:53:10.309Z,98110.63
2022-08-26T12:55:43.333Z,98115.78
2022-08-26T12:58:16.876Z,98110.72
2022-08-26T13:00:47.630Z,98110.28
2022-08-26T13:03:43.878Z,98105.09
2022-08-26T13:06:31.714Z,98108.72
2022-08-26T13:09:25.021Z,98113.56
2022-08-26T13:11:55.068Z,98115.25
2022-08-26T13:14:24.879Z,98120.88
2022-08-26T13:16:53.462Z,98115.84
2022-08-26T13:19:29.847Z,98119.13
2022-08-26T13:22:00.525Z,98119.94
2022-08-26T13:24:41.139Z,98120.91
2022-08-26T13:27:14.715Z,98121.94
2022-08-26T13:29:42.320Z,98115.13
2022-08-26T13:32:10.207Z,98119.97
2022-08-26T13:34:38.895Z,98126.31
2022-08-26T13:37:07.258Z,98123.53
2022-08-26T13:39:34.744Z,98121.78
2022-08-26T13:42:02.151Z,98117.69
2022-08-26T13:44:29.634Z,98126.59
2022-08-26T13:46:57.061Z,98117.16
2022-08-26T13:49:24.514Z,98123.75
2022-08-26T13:51:51.878Z,98124.50
2022-08-26T13:54:19.428Z,98121.97
2022-08-26T13:56:47.278Z,98111.53
2022-08-26T13:59:14.995Z,98121.97
2022-08-26T14:01:42.675Z,98127.28
2022-08-26T14:04:10.198Z,98133.88
2022-08-26T14:06:37.650Z,98137.19
2022-08-26T14:09:05.206Z,98125.97
2022-08-26T14:11:41.253Z,98123.19
2022-08-26T14:14:18.357Z,98127.72
2022-08-26T14:16:59.108Z,98133.53
2022-08-26T14:19:29.804Z,98131.50
2022-08-26T14:21:57.625Z,98125.63
2022-08-26T14:24:25.093Z,98130.94
2022-08-26T14:26:52.569Z,98126.31
2022-08-26T14:29:20.004Z,98136.19
2022-08-26T14:31:48.060Z,98132.13
2022-08-26T14:34:16.041Z,98140.97
2022-08-26T14:36:43.729Z,98136.88
2022-08-26T14:39:13.212Z,98147.97
2022-08-26T14:41:53.911Z,98152.91
2022-08-26T14:44:27.383Z,98156.41
2022-08-26T14:46:55.486Z,98150.44
2022-08-26T14:49:24.847Z,98163.38
2022-08-26T14:51:52.441Z,98156.19
2022-08-26T14:54:21.447Z,98157.91
2022-08-26T14:57:06.495Z,98170.22
2022-08-26T14:59:40.921Z,98175.91
2022-08-26T15:02:13.916Z,98186.69
2022-08-26T15:04:57.081Z,98173.38
2022-08-26T15:07:24.560Z,98159.31
2022-08-26T15:09:51.936Z,98166.13
2022-08-26T15:12:19.411Z,98171.88
2022-08-26T15:14:47.161Z,98175.13
2022-08-26T15:17:14.609Z,98168.44
2022-08-26T15:19:42.090Z,98168.16
2022-08-26T15:22:09.574Z,98176.94
2022-08-26T15:24:37.105Z,98180.88
2022-08-26T15:27:04.536Z,98205.44
2022-08-26T15:29:32.052Z,98201.38
2022-08-26T15:32:04.527Z,98221.84
2022-08-26T15:34:32.352Z,98219.00
2022-08-26T15:36:59.886Z,98216.91
2022-08-26T15:39:27.450Z,98219.84
2022-08-26T15:41:56.504Z,98218.22
2022-08-26T15:44:26.211Z,98224.00
2022-08-26T15:46:58.831Z,98220.00
2022-08-26T15:49:27.827Z,98228.28
2022-08-26T15:51:55.314Z,98220.94
2022-08-26T15:54:24.099Z,98246.91
2022-08-26T15:56:53.303Z,98233.41
2022-08-26T15:59:21.919Z,98237.56
2022-08-26T16:01:50.076Z,98226.25
2022-08-26T16:04:18.880Z,98224.94
2022-08-26T16:06:50.489Z,98230.84
2022-08-26T16:09:19.803Z,98232.75
2022-08-26T16:11:47.282Z,98228.44
2022-08-26T16:14:14.981Z,98232.56
2022-08-26T16:16:42.438Z,98226.50
2022-08-26T16:19:11.859Z,98236.59
2022-08-26T16:21:40.811Z,98231.22
2022-08-26T16:24:08.711Z,98233.31
2022-08-26T16:26:38.767Z,98242.22
2022-08-26T16:29:10.219Z,98241.16
2022-08-26T16:31:41.026Z,98230.78
2022-08-26T16:34:09.423Z,98233.75
2022-08-26T16:36:38.751Z,98230.38
2022-08-26T16:39:08.304Z,98222.38
2022-08-26T16:41:36.408Z,98233.38
2022-08-26T16:44:04.775Z,98228.78
2022-08-26T16:46:34.033Z,98234.16
2022-08-26T16:49:04.395Z,98228.19
2022-08-26T16:51:32.775Z,98227.59
2022-08-26T16:54:07.072Z,98229.31
2022-08-26T16:56:34.994Z,98236.47
2022-08-26T16:59:05.371Z,98230.31
2022-08-26T17:01:33.201Z,98229.44
2022-08-26T17:04:00.801Z,98230.69
2022-08-26T17:06:28.270Z,98229.31
2022-08-26T17:08:55.777Z,98227.03
2022-08-26T17:11:23.244Z,98227.19
2022-08-26T17:13:50.684Z,98225.69
2022-08-26T17:16:18.279Z,98218.94
2022-08-26T17:18:46.216Z,98220.13
2022-08-26T17:21:14.496Z,98229.69
2022-08-26T17:23:43.370Z,98228.94
2022-08-26T17:26:12.659Z,98219.81
2022-08-26T17:28:40.894Z,98224.97
2022-08-26T17:31:10.222Z,98222.75
2022-08-26T17:33:38.501Z,98212.56
2022-08-26T17:36:08.095Z,98208.47
2022-08-26T17:38:36.680Z,98216.94
2022-08-26T17:41:08.622Z,98220.75
2022-08-26T17:43:36.891Z,98226.50
2022-08-26T17:46:07.711Z,98226.63
2022-08-26T17:48:37.145Z,98230.81
2022-08-26T17:51:13.221Z,98235.22
2022-08-26T17:53:41.563Z,98229.09
2022-08-26T17:56:11.520Z,98236.94
2022-08-26T17:58:41.180Z,98226.97
2022-08-26T18:01:18.425Z,98232.81
2022-08-26T18:03:46.061Z,98234.03
2022-08-26T18:06:14.602Z,98241.44
2022-08-26T18:08:42.267Z,98236.06
2022-08-26T18:11:19.335Z,98249.88
2022-08-26T18:13:48.084Z,98254.72
2022-08-26T18:16:17.681Z,98255.31
2022-08-26T18:18:47.031Z,98261.31
2022-08-26T18:21:18.014Z,98264.25
2022-08-26T18:23:47.010Z,98248.41
2022-08-26T18:26:35.976Z,98253.22
2022-08-26T18:29:04.525Z,98265.66
2022-08-26T18:31:32.295Z,98261.19
2022-08-26T18:34:03.262Z,98277.78
2022-08-26T18:36:35.737Z,98281.16
2022-08-26T18:39:05.496Z,98277.78
2022-08-26T18:41:34.958Z,98279.97
2022-08-26T18:44:02.860Z,98264.91
2022-08-26T18:46:30.508Z,98271.19
2022-08-26T18:48:59.143Z,98275.81
2022-08-26T18:51:32.442Z,98273.53
2022-08-26T18:54:01.111Z,98263.81
2022-08-26T18:56:29.608Z,98263.38
2022-08-26T18:58:58.523Z,98267.06
2022-08-26T19:01:27.793Z,98265.09
2022-08-26T19:03:57.316Z,98263.38
2022-08-26T19:06:25.877Z,98250.63
2022-08-26T19:08:54.014Z,98254.59
2022-08-26T19:11:32.614Z,98264.78
2022-08-26T19:14:08.075Z,98268.94
2022-08-26T19:16:36.945Z,98258.00
2022-08-26T19:19:04.938Z,98264.78
2022-08-26T19:21:33.502Z,98270.31
2022-08-26T19:24:03.389Z,98273.53
2022-08-26T19:26:32.083Z,98273.50
2022-08-26T19:29:00.287Z,98276.41
2022-08-26T19:31:28.656Z,98280.41
2022-08-26T19:33:58.206Z,98289.50
2022-08-26T19:36:27.102Z,98291.34
2022-08-26T19:38:56.236Z,98288.25
2022-08-26T19:41:36.526Z,98293.94
2022-08-26T19:44:38.441Z,98300.00
2022-08-26T19:47:08.185Z,98285.94
2022-08-26T19:49:36.030Z,98293.47
2022-08-26T19:52:04.606Z,98309.00
2022-08-26T19:54:33.942Z,98287.63
2022-08-26T19:57:01.335Z,98290.38
2022-08-26T19:59:29.495Z,98296.81
2022-08-26T20:02:00.677Z,98299.28
2022-08-26T20:04:31.764Z,98307.28
2022-08-26T20:07:02.270Z,98312.03
2022-08-26T20:09:31.194Z,98309.25
2022-08-26T20:11:59.040Z,98304.66
2022-08-26T20:14:27.310Z,98304.94
2022-08-26T20:16:54.795Z,98306.31
2022-08-26T20:19:40.859Z,98297.22
2022-08-26T20:22:08.672Z,98307.50
2022-08-26T20:24:37.310Z,98313.66
2022-08-26T20:27:07.721Z,98312.41
2022-08-26T20:29:37.675Z,98314.09
2022-08-26T20:32:08.099Z,98324.09
2022-08-26T20:34:37.121Z,98313.56
2022-08-26T20:37:05.420Z,98312.63
2022-08-26T20:39:33.156Z,98302.16
2022-08-26T20:42:00.738Z,98309.97
2022-08-26T20:44:28.340Z,98310.84
2022-08-26T20:46:56.847Z,98316.38
2022-08-26T20:49:24.383Z,98326.03
2022-08-26T20:51:52.690Z,98315.81
2022-08-26T20:54:26.179Z,98323.66
2022-08-26T20:56:57.814Z,98328.63
2022-08-26T20:59:26.367Z,98329.97
2022-08-26T21:01:53.934Z,98322.25
2022-08-26T21:04:24.744Z,98323.16
2022-08-26T21:06:53.264Z,98329.41
2022-08-26T21:09:22.894Z,98334.03
2022-08-26T21:11:50.872Z,98335.59
2022-08-26T21:14:19.231Z,98334.75
2022-08-26T21:16:47.356Z,98335.31
2022-08-26T21:19:18.886Z,98332.28
2022-08-26T21:21:48.360Z,98338.97
2022-08-26T21:24:16.748Z,98339.84
2022-08-26T21:26:44.349Z,98338.19
2022-08-26T21:29:13.834Z,98339.84
2022-08-26T21:31:46.173Z,98340.97
2022-08-26T21:34:17.440Z,98345.38
2022-08-26T21:36:48.669Z,98350.34
2022-08-26T21:39:17.163Z,98351.06
2022-08-26T21:41:46.007Z,98358.78
2022-08-26T21:44:15.266Z,98354.59
2022-08-26T21:46:44.427Z,98356.00
2022-08-26T21:49:15.970Z,98353.84
2022-08-26T21:51:46.639Z,98356.16
2022-08-26T21:54:14.605Z,98354.75
2022-08-26T21:56:47.356Z,98356.25
2022-08-26T21:59:17.496Z,98358.47
2022-08-26T22:01:45.237Z,98348.56
2022-08-26T22:04:13.071Z,98349.69
2022-08-26T22:06:46.603Z,98353.03
2022-08-26T22:09:17.815Z,98356.97
2022-08-26T22:11:46.014Z,98349.22
2022-08-26T22:14:14.428Z,98362.75
2022-08-26T22:16:41.981Z,98359.78
2022-08-26T22:19:20.266Z,98361.56
2022-08-26T22:21:50.309Z,98361.00
2022-08-26T22:24:22.860Z,98356.09
2022-08-26T22:26:51.310Z,98353.81
2022-08-26T22:29:19.782Z,98355.94
2022-08-26T22:31:47.392Z,98353.41
2022-08-26T22:34:17.557Z,98362.00
2022-08-26T22:36:47.008Z,98366.84
2022-08-26T22:39:16.736Z,98361.03
2022-08-26T22:41:45.322Z,98360.69
2022-08-26T22:44:12.840Z,98356.06
2022-08-26T22:46:41.409Z,98370.28
2022-08-26T22:49:16.643Z,98363.34
2022-08-26T22:51:46.004Z,98371.06
2022-08-26T22:54:15.025Z,98383.56
2022-08-26T22:56:44.488Z,98380.00
2022-08-26T22:59:13.214Z,98386.31
2022-08-26T23:01:43.216Z,98384.31
2022-08-26T23:04:11.638Z,98381.44
2022-08-26T23:06:43.361Z,98384.53
2022-08-26T23:09:18.391Z,98379.66
2022-08-26T23:11:48.658Z,98387.41
2022-08-26T23:14:18.802Z,98401.63
2022-08-26T23:16:47.817Z,98385.09
2022-08-26T23:19:17.827Z,98389.41
2022-08-26T23:21:45.822Z,98388.03
2022-08-26T23:24:14.268Z,98379.00
2022-08-26T23:26:42.531Z,98389.03
2022-08-26T23:29:11.955Z,98384.31
2022-08-26T23:31:41.286Z,98387.06
2022-08-26T23:34:27.178Z,98381.72
2022-08-26T23:36:57.197Z,98389.69
2022-08-26T23:39:25.781Z,98393.78
2022-08-26T23:41:53.260Z,98396.97
2022-08-26T23:44:21.033Z,98397.41
2022-08-26T23:46:48.556Z,98395.44
2022-08-26T23:49:15.967Z,98394.41
2022-08-26T23:52:01.977Z,98401.16
2022-08-26T23:54:29.393Z,98400.13
2022-08-26T23:56:57.196Z,98403.69
2022-08-26T23:59:24.696Z,98395.06
